createdAt,value
2018-03-01T00:01:36.238Z,57.10
2018-03-01T00:04:04.107Z,57.40
2018-03-01T00:06:31.980Z,57.30
2018-03-01T00:08:59.754Z,57.10
2018-03-01T00:11:27.706Z,57.30
2018-03-01T00:13:55.777Z,57.80
2018-03-01T00:16:23.809Z,58.60
2018-03-01T00:18:51.703Z,58.50
2018-03-01T00:21:19.685Z,58.50
2018-03-01T00:23:47.672Z,58.90
2018-03-01T00:26:15.523Z,58.90
2018-03-01T00:28:43.388Z,59.10
2018-03-01T00:31:11.269Z,58.70
2018-03-01T00:33:39.188Z,58.50
2018-03-01T00:36:07.093Z,58.60
2018-03-01T00:38:35.059Z,58.90
2018-03-01T00:41:03.029Z,59.30
2018-03-01T00:43:30.830Z,59.40
2018-03-01T00:45:59.686Z,59.50
2018-03-01T00:48:27.560Z,59.50
2018-03-01T00:50:55.418Z,60.10
2018-03-01T00:53:23.231Z,59.80
2018-03-01T00:55:52.175Z,61.60
2018-03-01T00:58:20.144Z,61.40
2018-03-01T01:00:48.019Z,61.20
2018-03-01T01:03:15.806Z,60.50
2018-03-01T01:05:44.667Z,60.90
2018-03-01T01:08:12.637Z,60.80
2018-03-01T01:10:40.607Z,60.60
2018-03-01T01:13:08.481Z,60.10
2018-03-01T01:15:36.341Z,60.30
2018-03-01T01:18:04.207Z,60.30
2018-03-01T01:20:32.069Z,60.50
2018-03-01T01:22:59.821Z,60.70
2018-03-01T01:25:27.807Z,61.30
2018-03-01T01:27:55.777Z,61.60
2018-03-01T01:30:23.666Z,61.80
2018-03-01T01:32:51.532Z,62.10
2018-03-01T01:35:19.479Z,62.10
2018-03-01T01:37:47.356Z,62.10
2018-03-01T01:40:15.314Z,62.40
2018-03-01T01:42:43.174Z,62.60
2018-03-01T01:45:11.003Z,62.80
2018-03-01T01:47:39.070Z,63.20
2018-03-01T01:50:07.603Z,63.80
2018-03-01T01:52:35.470Z,63.80
2018-03-01T01:55:03.337Z,64.00
2018-03-01T01:57:31.203Z,64.40
2018-03-01T01:59:59.142Z,64.40
2018-03-01T02:02:27.207Z,64.80
2018-03-01T02:04:55.118Z,65.10
2018-03-01T02:07:22.998Z,65.30
2018-03-01T02:09:50.957Z,65.40
2018-03-01T02:12:18.745Z,65.50
2018-03-01T02:14:47.379Z,65.90
2018-03-01T02:17:15.254Z,65.50
2018-03-01T02:19:43.194Z,65.70
2018-03-01T02:22:11.162Z,65.70
2018-03-01T02:24:38.904Z,65.80
2018-03-01T02:27:07.869Z,66.10
2018-03-01T02:29:35.654Z,66.00
2018-03-01T02:32:04.206Z,67.00
2018-03-01T02:34:32.174Z,67.00
2018-03-01T02:36:59.997Z,67.20
2018-03-01T02:39:27.874Z,67.30
2018-03-01T02:41:55.775Z,67.70
2018-03-01T02:44:23.641Z,67.60
2018-03-01T02:46:51.626Z,68.10
2018-03-01T02:49:19.550Z,68.70
2018-03-01T02:51:47.465Z,69.80
2018-03-01T02:54:15.537Z,70.20
2018-03-01T02:56:43.386Z,70.20
2018-03-01T02:59:12.174Z,69.80
2018-03-01T03:01:40.045Z,69.80
2018-03-01T03:04:07.938Z,69.60
2018-03-01T03:06:35.976Z,69.70
2018-03-01T03:09:04.049Z,70.60
2018-03-01T03:11:31.991Z,70.20
2018-03-01T03:13:59.787Z,69.80
2018-03-01T03:16:27.697Z,69.80
2018-03-01T03:18:56.440Z,70.20
2018-03-01T03:21:24.302Z,70.10
2018-03-01T03:23:52.188Z,70.30
2018-03-01T03:26:20.131Z,70.00
2018-03-01T03:28:48.039Z,69.90
2018-03-01T03:31:16.901Z,70.20
2018-03-01T03:33:44.785Z,70.20
2018-03-01T03:36:12.578Z,70.20
2018-03-01T03:38:41.324Z,69.70
2018-03-01T03:41:09.205Z,69.70
2018-03-01T03:43:37.006Z,70.40
2018-03-01T03:46:04.756Z,70.30
2018-03-01T03:48:32.787Z,70.20
2018-03-01T03:51:00.653Z,70.30
2018-03-01T03:53:28.547Z,70.70
2018-03-01T03:55:56.459Z,70.90
2018-03-01T03:58:24.357Z,71.50
2018-03-01T04:00:52.225Z,71.30
2018-03-01T04:03:20.108Z,71.50
2018-03-01T04:05:48.163Z,71.80
2018-03-01T04:08:16.067Z,71.80
2018-03-01T04:10:44.728Z,71.70
2018-03-01T04:13:12.686Z,71.70
2018-03-01T04:15:40.655Z,71.80
2018-03-01T04:18:08.687Z,71.80
2018-03-01T04:20:36.605Z,72.10
2018-03-01T04:23:04.458Z,72.00
2018-03-01T04:25:32.326Z,71.90
2018-03-01T04:28:00.171Z,71.70
2018-03-01T04:30:28.266Z,71.30
2018-03-01T04:32:56.235Z,71.30
2018-03-01T04:35:24.062Z,72.20
2018-03-01T04:37:51.882Z,72.40
2018-03-01T04:40:19.731Z,72.20
2018-03-01T04:42:47.805Z,72.20
2018-03-01T04:45:16.746Z,72.50
2018-03-01T04:47:44.819Z,72.70
2018-03-01T04:50:13.455Z,73.80
2018-03-01T04:52:41.207Z,73.80
2018-03-01T04:55:08.984Z,74.00
2018-03-01T04:57:37.115Z,73.90
2018-03-01T05:00:04.855Z,73.60
2018-03-01T05:02:33.520Z,73.20
2018-03-01T05:05:01.623Z,73.10
2018-03-01T05:07:30.260Z,73.50
2018-03-01T05:09:58.231Z,73.50
2018-03-01T05:12:26.208Z,73.20
2018-03-01T05:14:54.171Z,73.00
2018-03-01T05:17:21.992Z,72.90
2018-03-01T05:19:49.808Z,73.20
2018-03-01T05:22:17.634Z,73.60
2018-03-01T05:24:45.351Z,73.40
2018-03-01T05:27:13.097Z,73.30
2018-03-01T05:29:40.838Z,73.50
2018-03-01T05:32:08.622Z,73.60
2018-03-01T05:34:36.727Z,73.40
2018-03-01T05:37:05.279Z,74.50
2018-03-01T05:39:33.367Z,73.60
2018-03-01T05:42:01.224Z,74.00
2018-03-01T05:44:29.083Z,73.90
2018-03-01T05:46:57.068Z,74.20
2018-03-01T05:49:24.920Z,74.20
2018-03-01T05:51:52.748Z,74.30
2018-03-01T05:54:20.703Z,74.60
2018-03-01T05:56:49.340Z,76.00
2018-03-01T05:59:17.199Z,75.90
2018-03-01T06:01:45.415Z,76.20
2018-03-01T06:04:14.065Z,76.10
2018-03-01T06:06:46.840Z,76.80
2018-03-01T06:09:14.815Z,75.60
2018-03-01T06:11:43.206Z,74.90
2018-03-01T06:14:11.165Z,74.70
2018-03-01T06:16:39.011Z,74.70
2018-03-01T06:19:07.034Z,74.60
2018-03-01T06:21:35.593Z,75.10
2018-03-01T06:24:03.616Z,74.20
2018-03-01T06:26:31.635Z,74.60
2018-03-01T06:28:59.547Z,74.60
2018-03-01T06:31:28.118Z,75.00
2018-03-01T06:33:56.752Z,75.70
2018-03-01T06:36:24.614Z,75.70
2018-03-01T06:38:52.822Z,76.10
2018-03-01T06:41:20.978Z,75.40
2018-03-01T06:43:49.204Z,75.90
2018-03-01T06:46:17.942Z,75.30
2018-03-01T06:48:45.806Z,75.30
2018-03-01T06:51:13.712Z,75.10
2018-03-01T06:53:42.359Z,75.00
2018-03-01T06:56:10.226Z,75.00
2018-03-01T06:58:38.269Z,74.50
2018-03-01T07:01:06.164Z,75.60
2018-03-01T07:03:34.211Z,75.60
2018-03-01T07:06:02.002Z,75.00
2018-03-01T07:08:29.867Z,74.60
2018-03-01T07:10:58.178Z,74.60
2018-03-01T07:13:26.950Z,74.30
2018-03-01T07:15:55.005Z,74.30
2018-03-01T07:18:22.814Z,73.30
2018-03-01T07:20:51.615Z,72.80
2018-03-01T07:23:19.526Z,72.80
2018-03-01T07:25:47.380Z,73.40
2018-03-01T07:28:15.259Z,73.60
2018-03-01T07:30:43.225Z,72.60
2018-03-01T07:33:11.095Z,71.50
2018-03-01T07:35:38.995Z,70.70
2018-03-01T07:38:07.760Z,69.00
2018-03-01T07:40:35.939Z,68.90
2018-03-01T07:43:04.098Z,68.90
2018-03-01T07:45:32.022Z,68.40
2018-03-01T07:48:00.974Z,67.00
2018-03-01T07:50:28.998Z,66.90
2018-03-01T07:52:57.308Z,66.30
2018-03-01T07:55:25.151Z,66.20
2018-03-01T07:57:53.126Z,65.20
2018-03-01T08:00:20.909Z,65.20
2018-03-01T08:02:49.000Z,64.60
2018-03-01T08:05:18.387Z,63.90
2018-03-01T08:07:46.453Z,63.90
2018-03-01T08:10:15.250Z,64.00
2018-03-01T08:12:43.111Z,63.70
2018-03-01T08:15:11.182Z,63.40
2018-03-01T08:17:39.304Z,62.50
2018-03-01T08:20:07.939Z,61.40
2018-03-01T08:22:35.906Z,61.30
2018-03-01T08:25:03.779Z,60.20
2018-03-01T08:27:31.847Z,59.70
2018-03-01T08:29:59.658Z,59.30
2018-03-01T08:32:28.194Z,58.30
2018-03-01T08:34:56.175Z,58.30
2018-03-01T08:37:24.120Z,58.30
2018-03-01T08:39:52.103Z,57.50
2018-03-01T08:42:19.936Z,57.50
2018-03-01T08:44:47.771Z,57.40
2018-03-01T08:47:16.625Z,56.50
2018-03-01T08:49:44.458Z,56.40
2018-03-01T08:52:12.462Z,56.10
2018-03-01T08:54:40.487Z,56.10
2018-03-01T08:57:08.510Z,55.70
2018-03-01T08:59:36.369Z,55.70
2018-03-01T09:02:04.243Z,55.90
2018-03-01T09:04:32.101Z,55.80
2018-03-01T09:06:59.950Z,56.00
2018-03-01T09:09:27.787Z,55.70
2018-03-01T09:11:56.522Z,55.50
2018-03-01T09:14:24.389Z,55.50
2018-03-01T09:16:52.460Z,55.60
2018-03-01T09:19:20.481Z,55.40
2018-03-01T09:21:49.241Z,55.20
2018-03-01T09:24:17.804Z,54.70
2018-03-01T09:26:46.083Z,54.60
2018-03-01T09:29:13.946Z,54.90
2018-03-01T09:31:41.920Z,55.00
2018-03-01T09:34:09.962Z,55.40
2018-03-01T09:36:37.957Z,55.50
2018-03-01T09:39:05.924Z,55.40
2018-03-01T09:41:33.795Z,54.90
2018-03-01T09:44:01.976Z,54.90
2018-03-01T09:46:29.834Z,54.50
2018-03-01T09:48:57.700Z,54.00
2018-03-01T09:51:25.603Z,53.40
2018-03-01T09:53:54.423Z,52.80
2018-03-01T09:56:22.219Z,52.70
2018-03-01T09:58:50.394Z,52.40
2018-03-01T10:01:18.250Z,52.60
2018-03-01T10:03:46.210Z,53.20
2018-03-01T10:06:14.209Z,53.00
2018-03-01T10:08:42.067Z,52.60
2018-03-01T10:11:09.936Z,52.40
2018-03-01T10:13:37.813Z,51.70
2018-03-01T10:16:05.679Z,51.50
2018-03-01T10:18:33.823Z,51.40
2018-03-01T10:21:01.607Z,51.10
2018-03-01T10:23:29.780Z,51.20
2018-03-01T10:25:57.665Z,51.20
2018-03-01T10:28:25.818Z,51.50
2018-03-01T10:30:54.028Z,51.40
2018-03-01T10:33:22.886Z,51.50
2018-03-01T10:35:51.119Z,50.90
2018-03-01T10:38:19.164Z,50.50
2018-03-01T10:40:47.102Z,50.60
2018-03-01T10:43:15.173Z,51.10
2018-03-01T10:45:43.056Z,50.90
2018-03-01T10:48:11.008Z,50.50
2018-03-01T10:50:39.095Z,50.10
2018-03-01T10:53:06.881Z,49.70
2018-03-01T10:55:35.532Z,49.10
2018-03-01T10:58:03.398Z,49.10
2018-03-01T11:00:36.927Z,48.40
2018-03-01T11:03:04.867Z,48.10
2018-03-01T11:05:32.632Z,47.70
2018-03-01T11:08:00.701Z,47.00
2018-03-01T11:10:28.776Z,46.70
2018-03-01T11:12:56.765Z,46.30
2018-03-01T11:15:24.658Z,45.70
2018-03-01T11:17:52.619Z,45.20
2018-03-01T11:20:21.266Z,44.30
2018-03-01T11:22:49.233Z,44.30
2018-03-01T11:25:17.242Z,44.00
2018-03-01T11:27:46.275Z,42.30
2018-03-01T11:30:14.248Z,42.20
2018-03-01T11:32:42.134Z,41.40
2018-03-01T11:35:09.937Z,41.10
2018-03-01T11:37:38.643Z,39.40
2018-03-01T11:40:06.453Z,39.30
2018-03-01T11:42:34.749Z,38.90
2018-03-01T11:45:02.801Z,37.80
2018-03-01T11:47:30.668Z,37.20
2018-03-01T11:49:58.758Z,37.30
2018-03-01T11:52:26.605Z,37.00
2018-03-01T11:54:54.399Z,36.30
2018-03-01T11:57:22.342Z,36.30
2018-03-01T11:59:50.262Z,36.30
2018-03-01T12:02:18.211Z,36.30
2018-03-01T12:04:46.759Z,36.10
2018-03-01T12:07:14.749Z,36.00
2018-03-01T12:09:42.698Z,35.40
2018-03-01T12:12:10.565Z,35.30
2018-03-01T12:14:39.270Z,34.60
2018-03-01T12:17:07.118Z,34.60
2018-03-01T12:19:35.087Z,35.20
2018-03-01T12:22:03.773Z,35.20
2018-03-01T12:24:32.368Z,35.20
2018-03-01T12:27:00.491Z,35.10
2018-03-01T12:29:28.399Z,35.00
2018-03-01T12:31:56.347Z,34.80
2018-03-01T12:34:24.335Z,34.50
2018-03-01T12:36:52.201Z,34.30
2018-03-01T12:39:20.053Z,33.20
2018-03-01T12:41:48.061Z,33.20
2018-03-01T12:44:15.905Z,33.60
2018-03-01T12:46:44.025Z,33.10
2018-03-01T12:49:12.819Z,32.70
2018-03-01T12:51:41.517Z,32.70
2018-03-01T12:54:09.435Z,32.70
2018-03-01T12:56:37.379Z,32.70
2018-03-01T12:59:05.548Z,32.30
2018-03-01T13:01:33.434Z,32.50
2018-03-01T13:04:01.409Z,32.20
2018-03-01T13:06:29.606Z,33.30
2018-03-01T13:08:57.747Z,33.40
2018-03-01T13:11:25.759Z,33.20
2018-03-01T13:13:54.490Z,32.40
2018-03-01T13:16:22.377Z,32.30
2018-03-01T13:18:50.369Z,32.40
2018-03-01T13:21:18.153Z,32.50
2018-03-01T13:23:46.826Z,32.90
2018-03-01T13:26:15.711Z,33.90
2018-03-01T13:28:44.576Z,32.60
2018-03-01T13:34:24.459Z,32.50
2018-03-01T13:36:53.131Z,32.60
2018-03-01T13:39:21.100Z,32.60
2018-03-01T13:41:51.013Z,33.10
2018-03-01T13:44:18.881Z,32.90
2018-03-01T13:46:47.769Z,32.80
2018-03-01T13:49:15.739Z,32.80
2018-03-01T13:51:43.731Z,33.00
2018-03-01T13:54:11.679Z,33.70
2018-03-01T13:56:39.666Z,33.70
2018-03-01T13:59:07.584Z,34.20
2018-03-01T14:01:35.596Z,34.40
2018-03-01T14:04:03.508Z,37.30
2018-03-01T14:06:37.022Z,36.20
2018-03-01T14:09:05.024Z,35.80
2018-03-01T14:11:32.976Z,33.80
2018-03-01T14:14:02.295Z,33.00
2018-03-01T14:16:30.091Z,33.30
2018-03-01T14:19:05.393Z,33.00
2018-03-01T14:21:43.245Z,32.90
2018-03-01T14:24:14.649Z,32.20
2018-03-01T14:26:46.987Z,32.20
2018-03-01T14:29:16.732Z,32.20
2018-03-01T14:31:44.704Z,32.40
2018-03-01T14:34:12.674Z,32.90
2018-03-01T14:36:40.472Z,33.60
2018-03-01T14:39:09.193Z,36.20
2018-03-01T14:41:37.297Z,35.70
2018-03-01T14:44:05.265Z,36.30
2018-03-01T14:46:33.232Z,36.50
2018-03-01T14:49:01.112Z,36.60
2018-03-01T14:51:28.978Z,36.50
2018-03-01T14:53:56.937Z,37.00
2018-03-01T14:56:25.116Z,37.10
2018-03-01T14:58:53.183Z,37.40
2018-03-01T15:01:21.255Z,37.60
2018-03-01T15:03:49.307Z,38.20
2018-03-01T15:06:17.295Z,38.50
2018-03-01T15:08:45.162Z,38.50
2018-03-01T15:11:12.933Z,38.70
2018-03-01T15:13:40.752Z,38.70
2018-03-01T15:16:08.598Z,38.30
2018-03-01T15:18:37.346Z,37.80
2018-03-01T15:21:05.172Z,37.80
2018-03-01T15:23:33.199Z,37.40
2018-03-01T15:26:01.060Z,37.80
2018-03-01T15:28:28.927Z,37.40
2018-03-01T15:30:56.735Z,38.30
2018-03-01T15:33:25.571Z,39.60
2018-03-01T15:35:53.643Z,39.70
2018-03-01T15:38:21.527Z,39.10
2018-03-01T15:40:49.498Z,38.90
2018-03-01T15:43:17.402Z,38.90
2018-03-01T15:45:45.317Z,39.30
2018-03-01T15:48:13.286Z,39.80
2018-03-01T15:50:41.151Z,40.10
2018-03-01T15:53:09.018Z,40.80
2018-03-01T15:55:36.897Z,41.40
2018-03-01T15:58:04.963Z,42.10
2018-03-01T16:00:32.838Z,42.70
2018-03-01T16:03:00.963Z,43.10
2018-03-01T16:05:28.803Z,43.10
2018-03-01T16:07:57.292Z,44.80
2018-03-01T16:10:25.815Z,44.90
2018-03-01T16:12:53.664Z,44.90
2018-03-01T16:15:21.588Z,45.10
2018-03-01T16:17:49.557Z,44.90
2018-03-01T16:20:17.503Z,45.40
2018-03-01T16:22:45.369Z,46.10
2018-03-01T16:25:13.335Z,46.40
2018-03-01T16:27:41.398Z,46.40
2018-03-01T16:30:09.392Z,47.20
2018-03-01T16:32:37.322Z,47.30
2018-03-01T16:35:05.241Z,47.90
2018-03-01T16:37:33.205Z,48.70
2018-03-01T16:40:00.992Z,48.10
2018-03-01T16:42:29.658Z,49.40
2018-03-01T16:44:57.826Z,49.40
2018-03-01T16:47:25.881Z,49.60
2018-03-01T16:49:53.953Z,50.90
2018-03-01T16:52:22.647Z,50.60
2018-03-01T16:54:50.613Z,50.50
2018-03-01T16:57:18.575Z,50.40
2018-03-01T16:59:46.547Z,50.20
2018-03-01T17:02:14.478Z,50.70
2018-03-01T17:04:42.539Z,51.00
2018-03-01T17:07:10.454Z,51.30
2018-03-01T17:09:38.317Z,51.50
2018-03-01T17:12:06.346Z,51.60
2018-03-01T17:14:34.361Z,51.90
2018-03-01T17:17:02.112Z,52.10
2018-03-01T17:19:30.163Z,52.20
2018-03-01T17:21:58.063Z,51.90
2018-03-01T17:24:26.140Z,51.90
2018-03-01T17:26:54.277Z,51.90
2018-03-01T17:29:22.192Z,54.10
2018-03-01T17:31:50.151Z,53.90
2018-03-01T17:34:18.337Z,52.10
2018-03-01T17:36:46.189Z,51.60
2018-03-01T17:39:13.993Z,51.50
2018-03-01T17:41:42.526Z,51.60
2018-03-01T17:44:10.358Z,51.60
2018-03-01T17:46:38.369Z,51.80
2018-03-01T17:49:06.369Z,51.80
2018-03-01T17:51:35.065Z,52.40
2018-03-01T17:54:03.709Z,52.10
2018-03-01T17:56:31.706Z,52.10
2018-03-01T17:58:59.664Z,52.10
2018-03-01T18:01:27.557Z,52.00
2018-03-01T18:03:56.172Z,52.30
2018-03-01T18:06:24.108Z,52.30
2018-03-01T18:08:52.962Z,52.10
2018-03-01T18:11:20.929Z,52.10
2018-03-01T18:13:49.002Z,52.30
2018-03-01T18:16:16.682Z,52.30
2018-03-01T18:18:44.735Z,52.30
2018-03-01T18:21:12.762Z,52.30
2018-03-01T18:23:40.639Z,52.40
2018-03-01T18:26:08.493Z,53.70
2018-03-01T18:28:36.267Z,53.70
2018-03-01T18:31:04.273Z,53.20
2018-03-01T18:33:32.047Z,52.50
2018-03-01T18:35:59.909Z,52.20
2018-03-01T18:38:27.769Z,52.40
2018-03-01T18:40:55.537Z,52.50
2018-03-01T18:43:23.737Z,52.50
2018-03-01T18:45:51.680Z,52.80
2018-03-01T18:48:19.547Z,53.20
2018-03-01T18:50:47.576Z,53.30
2018-03-01T18:53:15.628Z,53.40
2018-03-01T18:55:44.579Z,54.40
2018-03-01T18:58:12.654Z,54.40
2018-03-01T19:00:40.723Z,54.70
2018-03-01T19:03:08.591Z,54.70
2018-03-01T19:05:36.453Z,55.00
2018-03-01T19:08:04.323Z,55.40
2018-03-01T19:10:32.295Z,55.60
2018-03-01T19:13:00.205Z,56.30
2018-03-01T19:15:29.035Z,56.70
2018-03-01T19:17:56.989Z,56.70
2018-03-01T19:20:24.884Z,56.10
2018-03-01T19:22:52.757Z,55.10
2018-03-01T19:25:21.028Z,54.50
2018-03-01T19:27:48.953Z,54.20
2018-03-01T19:30:17.045Z,53.90
2018-03-01T19:32:44.835Z,53.80
2018-03-01T19:35:20.313Z,54.20
2018-03-01T19:37:48.353Z,56.50
2018-03-01T19:40:21.171Z,57.40
2018-03-01T19:42:50.710Z,57.60
2018-03-01T19:45:18.664Z,57.60
2018-03-01T19:47:49.242Z,58.20
2018-03-01T19:50:17.184Z,58.20
2018-03-01T19:52:45.002Z,57.50
2018-03-01T19:55:12.844Z,57.40
2018-03-01T19:57:40.610Z,57.00
2018-03-01T20:00:08.401Z,56.20
2018-03-01T20:02:36.345Z,56.30
2018-03-01T20:05:04.113Z,57.00
2018-03-01T20:07:32.040Z,57.80
2018-03-01T20:09:59.944Z,57.10
2018-03-01T20:12:27.808Z,56.50
2018-03-01T20:14:55.675Z,56.40
2018-03-01T20:17:23.677Z,56.70
2018-03-01T20:19:52.455Z,57.30
2018-03-01T20:22:21.059Z,57.80
2018-03-01T20:24:49.835Z,59.10
2018-03-01T20:27:18.760Z,58.80
2018-03-01T20:29:46.659Z,59.30
2018-03-01T20:32:14.946Z,58.50
2018-03-01T20:34:42.819Z,58.00
2018-03-01T20:37:10.578Z,58.20
2018-03-01T20:39:38.440Z,58.80
2018-03-01T20:42:06.618Z,59.20
2018-03-01T20:44:34.587Z,59.50
2018-03-01T20:47:02.467Z,59.80
2018-03-01T20:49:30.183Z,59.90
2018-03-01T20:51:58.084Z,60.30
2018-03-01T20:54:26.173Z,61.00
2018-03-01T20:56:53.922Z,60.80
2018-03-01T20:59:22.081Z,60.60
2018-03-01T21:01:50.132Z,60.60
2018-03-01T21:04:18.034Z,61.00
2018-03-01T21:06:45.987Z,61.10
2018-03-01T21:09:13.931Z,60.90
2018-03-01T21:11:42.144Z,60.90
2018-03-01T21:14:10.024Z,61.20
2018-03-01T21:16:37.881Z,61.70
2018-03-01T21:19:05.953Z,62.40
2018-03-01T21:21:33.755Z,62.70
2018-03-01T21:24:02.517Z,63.10
2018-03-01T21:26:30.370Z,63.10
2018-03-01T21:28:58.307Z,62.80
2018-03-01T21:31:26.208Z,62.60
2018-03-01T21:33:54.090Z,62.80
2018-03-01T21:36:21.939Z,62.90
2018-03-01T21:38:49.875Z,62.90
2018-03-01T21:41:17.966Z,62.90
2018-03-01T21:43:45.900Z,62.70
2018-03-01T21:46:15.663Z,63.80
2018-03-01T21:48:43.527Z,63.70
2018-03-01T21:51:11.402Z,64.20
2018-03-01T21:53:40.005Z,64.70
2018-03-01T21:56:07.851Z,64.40
2018-03-01T21:58:35.880Z,65.40
2018-03-01T22:01:03.784Z,65.20
2018-03-01T22:03:31.753Z,65.40
2018-03-01T22:05:59.864Z,65.60
2018-03-01T22:08:28.531Z,66.60
2018-03-01T22:10:56.581Z,66.60
2018-03-01T22:13:24.625Z,66.40
2018-03-01T22:15:52.579Z,66.10
2018-03-01T22:18:20.401Z,66.40
2018-03-01T22:20:48.255Z,66.50
2018-03-01T22:23:16.122Z,66.70
2018-03-01T22:25:43.988Z,67.10
2018-03-01T22:28:11.857Z,67.00
2018-03-01T22:30:40.038Z,67.20
2018-03-01T22:33:07.898Z,67.00
2018-03-01T22:35:35.781Z,66.60
2018-03-01T22:38:03.636Z,66.40
2018-03-01T22:40:31.508Z,66.40
2018-03-01T22:42:59.395Z,66.60
2018-03-01T22:45:28.204Z,67.50
2018-03-01T22:47:56.838Z,66.60
2018-03-01T22:50:25.024Z,66.60
2018-03-01T22:52:53.018Z,66.60
2018-03-01T22:55:21.668Z,67.10
2018-03-01T22:57:49.659Z,67.10
2018-03-01T23:03:22.233Z,67.70
2018-03-01T23:05:50.111Z,68.10
2018-03-01T23:08:17.858Z,68.50
2018-03-01T23:10:45.618Z,68.50
2018-03-01T23:13:13.546Z,68.60
2018-03-01T23:15:42.168Z,68.40
2018-03-01T23:18:09.963Z,68.40
2018-03-01T23:20:38.547Z,68.10
2018-03-01T23:23:06.359Z,68.00
2018-03-01T23:25:34.114Z,68.10
2018-03-01T23:28:02.673Z,68.10
2018-03-01T23:30:30.579Z,68.10
2018-03-01T23:32:58.280Z,68.10
2018-03-01T23:35:26.043Z,68.40
2018-03-01T23:37:53.872Z,68.10
2018-03-01T23:40:21.598Z,67.80
2018-03-01T23:42:49.542Z,67.80
2018-03-01T23:45:17.320Z,68.50
2018-03-01T23:47:45.099Z,67.40
2018-03-01T23:50:13.648Z,67.30
2018-03-01T23:52:41.375Z,66.90
2018-03-01T23:55:09.258Z,66.00
2018-03-01T23:57:37.087Z,66.00
